Bookmark and Share
Track history (hours):
 

Mt Bomar Mars

Last reported at 2014-Apr-23 12:10 UTC. Time now 2014-Apr-23 12:49 UTC.
Position N 51°47' E 003°21'.

Length 107 m; draft 6.6 m.

Type: Ship. MMSI: 256784000.

NotesDate/timePositionNaut miles runAvg speedWind from/ knotsBaromVisibWave heightAir tempDewpointWater temp
2014-Apr-23 12:10N 51°47' E 003°21'0 0.1
2014-Apr-23 10:25N 51°47' E 003°21'0 0.0
2014-Apr-23 09:28N 51°47' E 003°21'0 0.0
2014-Apr-23 08:22N 51°47' E 003°21'0 0.0
2014-Apr-23 07:31N 51°47' E 003°21'0 0.0
2014-Apr-23 06:28N 51°47' E 003°21'0 0.1
2014-Apr-23 04:28N 51°47' E 003°21'0 0.0
2014-Apr-23 03:33N 51°47' E 003°21'0 0.0
2014-Apr-23 02:31N 51°47' E 003°21'0 0.0
2014-Apr-23 01:28N 51°47' E 003°21'0 0.0
2014-Apr-23 00:31N 51°47' E 003°21'0 0.1
2014-Apr-22 23:31N 51°47' E 003°21'0 0.0
2014-Apr-22 22:28N 51°47' E 003°21'0 0.0
2014-Apr-22 21:22N 51°47' E 003°21'0 0.0
2014-Apr-22 20:07N 51°47' E 003°21'0 0.0
2014-Apr-22 19:28N 51°47' E 003°21'0 0.0
2014-Apr-22 18:31N 51°47' E 003°21'0 0.0
2014-Apr-22 17:33N 51°47' E 003°21'8 8.3
2014-Apr-22 16:33N 51°38' E 003°20'1111.2
2014-Apr-22 15:33N 51°29' E 003°30'1010.2
2014-Apr-22 14:33N 51°23' E 003°43'10 9.7
2014-Apr-22 13:34N 51°26' E 003°58'10 9.9
2014-Apr-22 12:33N 51°22' E 004°13'7 7.1
2014-Apr-22 11:34N 51°17' E 004°20'1 1.1
2014-Apr-22 10:33N 51°16' E 004°21'0 0.0
2014-Apr-22 09:32N 51°16' E 004°21'0 0.0
2014-Apr-22 08:32N 51°16' E 004°21'0 0.0
2014-Apr-22 07:32N 51°16' E 004°21'0 0.0
2014-Apr-22 06:32N 51°16' E 004°21'0 0.0
2014-Apr-22 05:32N 51°16' E 004°21'0 0.0
2014-Apr-22 04:32N 51°16' E 004°21'0 0.0
2014-Apr-22 03:29N 51°16' E 004°21'0 0.0
2014-Apr-22 02:32N 51°16' E 004°21'0 0.0
2014-Apr-22 01:32N 51°16' E 004°21'0 0.0
2014-Apr-22 00:32N 51°16' E 004°21'0 0.0
2014-Apr-21 23:32N 51°16' E 004°21'0 0.0
2014-Apr-21 22:32N 51°16' E 004°21'0 0.0
2014-Apr-21 21:32N 51°16' E 004°21'0 0.0
2014-Apr-21 20:32N 51°16' E 004°21'0 0.0
2014-Apr-21 19:32N 51°16' E 004°21'0 0.0
2014-Apr-21 18:32N 51°16' E 004°21'0 0.2
2014-Apr-21 17:33N 51°16' E 004°21'5 5.4
2014-Apr-21 16:34N 51°21' E 004°17'0 0.1
2014-Apr-21 15:34N 51°21' E 004°17'7 6.9
2014-Apr-21 14:33N 51°22' E 004°06'7 6.7
2014-Apr-21 13:33N 51°22' E 003°55'1010.3
2014-Apr-21 12:33N 51°25' E 003°39'1010.4
2014-Apr-21 11:33N 51°24' E 003°23'1010.0
2014-Apr-21 10:33N 51°24' E 003°07'9 9.2
2014-Apr-21 09:33N 51°22' E 002°52'8 8.3
2014-Apr-21 08:33N 51°22' E 002°39'5 5.2
2014-Apr-21 07:33N 51°22' E 002°31'8 8.0
2014-Apr-21 06:32N 51°18' E 002°19'1313.3
2014-Apr-21 05:33N 51°12' E 002°01'1413.9
2014-Apr-21 04:34N 51°04' E 001°43'1514.9
2014-Apr-21 03:34N 50°52' E 001°28'1413.8
2014-Apr-21 02:32N 50°39' E 001°19'1713.2
2014-Apr-21 01:14N 50°28' E 000°58'913.4
2014-Apr-21 00:32N 50°26' E 000°44'1414.2
2014-Apr-20 23:33N 50°22' E 000°23'2812.9
2014-Apr-20 21:21N 50°15' W 000°20'911.8
2014-Apr-20 20:33N 50°13' W 000°34'1310.9
2014-Apr-20 19:22N 50°09' W 000°54'8 9.7
2014-Apr-20 18:33N 50°07' W 001°06'9 8.8
2014-Apr-20 17:33N 50°05' W 001°19'241 6.8
2014-Apr-19 06:15N 53°27' W 004°51'1013.2
2014-Apr-19 05:31N 53°34' W 004°39'1414.6
2014-Apr-19 04:34N 53°34' W 004°15'1614.1
2014-Apr-19 03:24N 53°34' W 003°48'1113.2
2014-Apr-19 02:33N 53°34' W 003°29'1211.9
2014-Apr-19 01:34N 53°32' W 003°09'6 0.3
2014-Apr-18 00:20N 53°27' W 003°02'200 5.1
2014-Apr-16 09:08N 50°18' W 001°17'5 9.1
2014-Apr-16 08:32N 50°19' W 001°09'9 9.5
2014-Apr-16 07:33N 50°27' W 001°02'1111.3
2014-Apr-16 06:33N 50°38' W 000°59'10 9.5
2014-Apr-16 05:33N 50°46' W 001°09'9 8.7
2014-Apr-16 04:33N 50°51' W 001°20'0 0.0
2014-Apr-16 03:33N 50°51' W 001°20'0 0.0
2014-Apr-16 02:33N 50°51' W 001°20'0 0.0
2014-Apr-16 01:33N 50°51' W 001°20'0 0.0
2014-Apr-16 00:33N 50°51' W 001°20'0 0.0
2014-Apr-15 23:33N 50°51' W 001°20'0 0.0
2014-Apr-15 22:32N 50°51' W 001°20'0 0.0
2014-Apr-15 21:33N 50°51' W 001°20'0 0.0
2014-Apr-15 20:32N 50°51' W 001°20'0 0.0
2014-Apr-15 19:32N 50°51' W 001°20'0 0.0
2014-Apr-15 18:32N 50°51' W 001°20'0 0.0
2014-Apr-15 17:32N 50°51' W 001°20'0 0.0
2014-Apr-15 16:32N 50°51' W 001°20'0 0.0
2014-Apr-15 15:32N 50°51' W 001°20'0 0.0
2014-Apr-15 14:32N 50°51' W 001°20'0 0.0
2014-Apr-15 12:33N 50°51' W 001°20'0 0.0
2014-Apr-15 11:33N 50°51' W 001°20'0 0.0
2014-Apr-15 10:32N 50°51' W 001°20'0 0.0
2014-Apr-15 09:32N 50°51' W 001°20'5 5.4
2014-Apr-15 08:34N 50°47' W 001°14'1010.1
2014-Apr-15 07:34N 50°43' W 000°59'5 5.3
2014-Apr-15 06:33N 50°38' W 001°02'0 0.0
2014-Apr-15 05:33N 50°38' W 001°02'0 0.1
2014-Apr-15 03:33N 50°38' W 001°02'0 0.0
2014-Apr-15 02:33N 50°38' W 001°02'0 0.0
2014-Apr-15 01:33N 50°38' W 001°02'0 0.0
2014-Apr-15 00:33N 50°38' W 001°02'0 0.0
2014-Apr-14 23:33N 50°38' W 001°02'0 0.0
2014-Apr-14 22:33N 50°38' W 001°02'0 0.0
2014-Apr-14 21:33N 50°38' W 001°02'0 0.2
2014-Apr-14 20:33N 50°38' W 001°02'0 0.0
2014-Apr-14 19:33N 50°38' W 001°02'0 0.0
2014-Apr-14 18:33N 50°38' W 001°02'0 0.0
2014-Apr-14 17:33N 50°38' W 001°02'0 0.0
2014-Apr-14 16:33N 50°38' W 001°02'0 0.0
2014-Apr-14 15:33N 50°38' W 001°02'0 0.2
2014-Apr-14 14:33N 50°38' W 001°02'0 0.0
2014-Apr-14 13:33N 50°38' W 001°02'0 0.1
2014-Apr-14 11:33N 50°38' W 001°02'0 0.0
2014-Apr-14 10:33N 50°38' W 001°02'0 0.1
2014-Apr-14 09:33N 50°38' W 001°02'0 0.1
2014-Apr-14 08:33N 50°38' W 001°02'0 0.0
2014-Apr-14 07:33N 50°38' W 001°02'0 0.0
2014-Apr-14 06:33N 50°38' W 001°02'0 0.0
2014-Apr-14 05:33N 50°38' W 001°02'0 0.0
2014-Apr-13 22:33N 50°38' W 001°02'0 0.1
2014-Apr-13 21:33N 50°38' W 001°02'0 0.1
2014-Apr-13 20:33N 50°38' W 001°02'0 0.0
2014-Apr-13 19:33N 50°38' W 001°02'0 0.0
2014-Apr-13 18:33N 50°38' W 001°02'0 0.0
2014-Apr-13 17:33N 50°38' W 001°02'0 0.0
2014-Apr-13 16:33N 50°38' W 001°02'0 0.1
2014-Apr-13 15:33N 50°38' W 001°02'0 0.1
2014-Apr-13 14:33N 50°38' W 001°02'0 0.0
2014-Apr-13 13:33N 50°38' W 001°02'0 0.1
2014-Apr-13 12:33N 50°38' W 001°02'  

Dump ship's entire track history

sailing weather and tide predictions

Mt Bomar Mars — 9HCM9 — position and weather